createdAt,value
2022-08-03T00:01:31.399Z,1.40
2022-08-03T00:03:58.337Z,1.83
2022-08-03T00:06:25.749Z,1.33
2022-08-03T00:08:52.829Z,1.35
2022-08-03T00:11:19.742Z,1.10
2022-08-03T00:13:46.755Z,1.08
2022-08-03T00:16:13.888Z,1.08
2022-08-03T00:18:41.218Z,1.73
2022-08-03T00:21:08.803Z,1.20
2022-08-03T00:23:50.989Z,1.35
2022-08-03T00:26:20.810Z,1.50
2022-08-03T00:28:48.923Z,1.55
2022-08-03T00:31:16.504Z,1.55
2022-08-03T00:33:58.341Z,1.00
2022-08-03T00:36:28.181Z,1.55
2022-08-03T00:38:56.392Z,1.60
2022-08-03T00:41:23.405Z,1.33
2022-08-03T00:43:51.525Z,1.52
2022-08-03T00:46:21.783Z,1.65
2022-08-03T00:48:50.312Z,1.30
2022-08-03T00:51:18.469Z,1.48
2022-08-03T00:53:45.976Z,1.70
2022-08-03T00:56:17.619Z,1.45
2022-08-03T00:58:46.394Z,1.63
2022-08-03T01:01:14.195Z,1.60
2022-08-03T01:03:41.791Z,1.13
2022-08-03T01:06:34.383Z,1.40
2022-08-03T01:09:17.698Z,1.20
2022-08-03T01:12:02.018Z,1.73
2022-08-03T01:14:57.805Z,1.13
2022-08-03T01:17:40.612Z,1.40
2022-08-03T01:20:12.142Z,1.40
2022-08-03T01:23:03.728Z,1.70
2022-08-03T01:26:14.900Z,1.40
2022-08-03T01:29:13.957Z,1.10
2022-08-03T01:33:02.226Z,1.52
2022-08-03T01:34:48.856Z,1.20
2022-08-03T01:37:25.512Z,1.88
2022-08-03T01:39:56.545Z,1.30
2022-08-03T01:42:24.990Z,1.08
2022-08-03T01:44:53.082Z,0.70
2022-08-03T01:47:21.487Z,1.00
2022-08-03T01:49:50.029Z,1.00
2022-08-03T01:52:21.787Z,1.17
2022-08-03T01:54:52.622Z,1.85
2022-08-03T01:57:21.208Z,1.00
2022-08-03T01:59:50.936Z,1.65
2022-08-03T02:02:33.440Z,1.30
2022-08-03T02:05:04.154Z,0.70
2022-08-03T02:07:33.236Z,0.73
2022-08-03T02:10:04.347Z,0.70
2022-08-03T02:12:33.751Z,1.27
2022-08-03T02:15:03.283Z,1.08
2022-08-03T02:17:39.724Z,1.00
2022-08-03T02:20:09.623Z,0.85
2022-08-03T02:22:40.078Z,0.95
2022-08-03T02:25:10.146Z,1.92
2022-08-03T02:28:00.938Z,2.25
2022-08-03T02:30:39.119Z,1.00
2022-08-03T02:33:11.865Z,0.93
2022-08-03T02:35:41.234Z,1.00
2022-08-03T02:38:11.553Z,1.20
2022-08-03T02:40:40.947Z,1.38
2022-08-03T02:43:17.558Z,1.13
2022-08-03T02:45:48.263Z,0.80
2022-08-03T02:48:23.224Z,1.90
2022-08-03T02:50:53.453Z,1.25
2022-08-03T02:53:21.621Z,0.80
2022-08-03T02:55:50.210Z,0.82
2022-08-03T02:58:23.063Z,1.00
2022-08-03T03:00:54.153Z,1.15
2022-08-03T03:03:23.326Z,1.13
2022-08-03T03:05:57.836Z,0.85
2022-08-03T03:08:28.794Z,1.45
2022-08-03T03:11:00.248Z,1.15
2022-08-03T03:13:31.336Z,1.90
2022-08-03T03:16:04.257Z,1.00
2022-08-03T03:18:33.928Z,0.90
2022-08-03T03:21:03.103Z,1.45
2022-08-03T03:23:32.521Z,1.30
2022-08-03T03:26:02.267Z,2.38
2022-08-03T03:28:30.937Z,1.67
2022-08-03T03:30:59.183Z,0.50
2022-08-03T03:33:28.365Z,0.85
2022-08-03T03:35:57.254Z,1.63
2022-08-03T03:38:24.212Z,1.23
2022-08-03T03:40:51.411Z,1.40
2022-08-03T03:43:18.886Z,1.27
2022-08-03T03:45:47.622Z,1.92
2022-08-03T03:48:15.219Z,1.05
2022-08-03T03:50:44.327Z,0.95
2022-08-03T03:53:13.300Z,1.85
2022-08-03T03:55:57.919Z,0.82
2022-08-03T03:58:28.952Z,1.10
2022-08-03T04:00:56.146Z,0.80
2022-08-03T04:03:23.187Z,1.25
2022-08-03T04:06:08.837Z,1.88
2022-08-03T04:08:54.822Z,0.95
2022-08-03T04:14:04.900Z,1.05
2022-08-03T04:19:34.200Z,1.42
2022-08-03T04:22:06.146Z,1.50
2022-08-03T04:24:44.875Z,1.05
2022-08-03T04:27:15.464Z,1.00
2022-08-03T04:29:48.787Z,3.65
2022-08-03T04:32:17.612Z,1.58
2022-08-03T04:34:44.907Z,2.10
2022-08-03T04:37:17.770Z,1.80
2022-08-03T04:39:48.921Z,3.20
2022-08-03T04:42:16.846Z,3.78
2022-08-03T04:44:46.217Z,4.13
2022-08-03T04:47:13.236Z,4.40
2022-08-03T04:49:40.618Z,4.80
2022-08-03T04:52:10.119Z,4.88
2022-08-03T04:54:48.857Z,4.60
2022-08-03T04:57:23.201Z,5.30
2022-08-03T05:00:01.320Z,4.50
2022-08-03T05:02:31.043Z,4.47
2022-08-03T05:04:58.497Z,5.05
2022-08-03T05:07:25.730Z,3.92
2022-08-03T05:09:57.560Z,3.67
2022-08-03T05:12:32.743Z,3.58
2022-08-03T05:15:01.280Z,4.25
2022-08-03T05:17:28.954Z,4.78
2022-08-03T05:19:56.416Z,3.47
2022-08-03T05:22:24.112Z,2.75
2022-08-03T05:24:51.071Z,3.35
2022-08-03T05:27:19.418Z,2.78
2022-08-03T05:29:51.168Z,3.00
2022-08-03T05:32:18.725Z,3.10
2022-08-03T05:34:48.917Z,3.30
2022-08-03T05:37:16.409Z,3.22
2022-08-03T05:39:43.475Z,3.30
2022-08-03T05:42:10.676Z,3.03
2022-08-03T05:44:38.811Z,3.63
2022-08-03T05:47:06.168Z,3.72
2022-08-03T05:49:33.258Z,3.75
2022-08-03T05:52:13.790Z,3.00
2022-08-03T05:54:55.320Z,2.67
2022-08-03T05:57:27.508Z,3.30
2022-08-03T05:59:58.200Z,3.35
2022-08-03T06:02:27.211Z,2.78
2022-08-03T06:04:54.556Z,3.22
2022-08-03T06:07:21.518Z,3.08
2022-08-03T06:10:34.993Z,2.47
2022-08-03T06:12:36.313Z,3.38
2022-08-03T06:15:04.907Z,3.58
2022-08-03T06:17:37.234Z,2.33
2022-08-03T06:20:06.192Z,2.17
2022-08-03T06:22:33.262Z,2.92
2022-08-03T06:25:04.858Z,2.17
2022-08-03T06:27:36.517Z,2.53
2022-08-03T06:30:05.233Z,2.38
2022-08-03T06:32:32.228Z,3.40
2022-08-03T06:34:59.707Z,2.80
2022-08-03T06:37:27.188Z,2.80
2022-08-03T06:39:54.417Z,2.38
2022-08-03T06:42:22.639Z,2.80
2022-08-03T06:44:49.998Z,2.42
2022-08-03T06:47:17.411Z,2.33
2022-08-03T06:49:44.491Z,3.75
2022-08-03T06:52:37.551Z,2.63
2022-08-03T06:55:11.921Z,2.58
2022-08-03T06:57:38.991Z,2.83
2022-08-03T07:00:11.938Z,3.95
2022-08-03T07:02:40.202Z,2.45
2022-08-03T07:05:09.236Z,2.83
2022-08-03T07:07:36.862Z,2.17
2022-08-03T07:10:05.406Z,3.53
2022-08-03T07:12:33.837Z,3.35
2022-08-03T07:15:03.301Z,4.85
2022-08-03T07:17:33.124Z,2.40
2022-08-03T07:20:02.501Z,3.70
2022-08-03T07:22:29.647Z,2.10
2022-08-03T07:24:56.815Z,2.70
2022-08-03T07:27:24.216Z,2.65
2022-08-03T07:29:51.174Z,3.20
2022-08-03T07:32:18.613Z,3.20
2022-08-03T07:34:45.750Z,2.55
2022-08-03T07:37:12.662Z,1.67
2022-08-03T07:39:39.695Z,2.55
2022-08-03T07:42:06.696Z,2.20
2022-08-03T07:44:33.599Z,2.88
2022-08-03T07:47:00.551Z,2.70
2022-08-03T07:49:31.225Z,2.10
2022-08-03T07:52:17.291Z,1.85
2022-08-03T07:54:44.469Z,2.03
2022-08-03T07:57:11.660Z,1.73
2022-08-03T07:59:56.609Z,2.22
2022-08-03T08:02:26.853Z,2.65
2022-08-03T08:04:53.774Z,2.30
2022-08-03T08:07:20.793Z,2.08
2022-08-03T08:09:47.781Z,2.10
2022-08-03T08:12:15.681Z,1.88
2022-08-03T08:14:45.762Z,2.70
2022-08-03T08:17:13.926Z,2.20
2022-08-03T08:19:43.849Z,2.33
2022-08-03T08:22:22.394Z,2.92
2022-08-03T08:24:59.445Z,2.30
2022-08-03T08:27:28.057Z,2.10
2022-08-03T08:30:19.420Z,2.28
2022-08-03T08:32:46.973Z,2.50
2022-08-03T08:35:14.525Z,3.33
2022-08-03T08:37:41.561Z,3.22
2022-08-03T08:40:09.940Z,2.15
2022-08-03T08:42:57.517Z,2.13
2022-08-03T08:45:26.402Z,2.40
2022-08-03T08:48:00.183Z,2.10
2022-08-03T08:50:29.731Z,3.15
2022-08-03T08:53:01.182Z,2.75
2022-08-03T08:55:28.637Z,2.30
2022-08-03T08:58:05.492Z,2.30
2022-08-03T09:00:32.796Z,1.90
2022-08-03T09:03:01.199Z,2.05
2022-08-03T09:05:55.078Z,2.20
2022-08-03T09:08:20.177Z,3.00
2022-08-03T09:10:47.156Z,2.47
2022-08-03T09:13:14.325Z,2.85
2022-08-03T09:15:42.284Z,4.10
2022-08-03T09:18:33.109Z,2.65
2022-08-03T09:21:31.615Z,3.77
2022-08-03T09:24:04.742Z,4.10
2022-08-03T09:26:34.662Z,4.32
2022-08-03T09:29:14.463Z,3.40
2022-08-03T09:31:46.416Z,4.72
2022-08-03T09:34:16.701Z,2.83
2022-08-03T09:36:51.508Z,4.13
2022-08-03T09:39:37.506Z,5.43
2022-08-03T09:42:17.471Z,2.38
2022-08-03T09:44:48.340Z,3.05
2022-08-03T09:47:28.616Z,3.08
2022-08-03T09:50:05.047Z,3.45
2022-08-03T09:52:50.019Z,3.42
2022-08-03T09:56:33.621Z,3.45
2022-08-03T09:58:14.352Z,4.18
2022-08-03T10:01:05.260Z,3.08
2022-08-03T10:03:36.403Z,2.67
2022-08-03T10:06:28.833Z,2.08
2022-08-03T10:09:17.582Z,2.83
2022-08-03T10:11:46.995Z,4.05
2022-08-03T10:14:19.196Z,2.45
2022-08-03T10:16:49.167Z,3.13
2022-08-03T10:19:17.409Z,4.00
2022-08-03T10:21:56.909Z,3.20
2022-08-03T10:24:28.339Z,2.47
2022-08-03T10:27:07.068Z,2.75
2022-08-03T10:29:46.307Z,2.50
2022-08-03T10:32:21.853Z,2.67
2022-08-03T10:34:52.050Z,2.30
2022-08-03T10:37:33.159Z,2.25
2022-08-03T10:40:02.011Z,2.83
2022-08-03T10:42:31.420Z,3.17
2022-08-03T10:45:07.615Z,3.00
2022-08-03T10:47:35.824Z,1.67
2022-08-03T10:50:03.655Z,2.55
2022-08-03T10:52:32.999Z,2.40
2022-08-03T10:55:59.474Z,2.47
2022-08-03T10:58:37.685Z,2.40
2022-08-03T11:01:59.945Z,2.45
2022-08-03T11:04:29.929Z,2.53
2022-08-03T11:07:16.890Z,2.78
2022-08-03T11:09:50.327Z,2.40
2022-08-03T11:12:34.015Z,2.85
2022-08-03T11:15:06.832Z,3.42
2022-08-03T11:17:46.807Z,2.20
2022-08-03T11:20:55.208Z,2.28
2022-08-03T11:24:04.050Z,2.13
2022-08-03T11:26:34.421Z,2.28
2022-08-03T11:29:31.202Z,1.85
2022-08-03T11:31:58.371Z,2.33
2022-08-03T11:34:25.933Z,1.80
2022-08-03T11:37:23.463Z,1.95
2022-08-03T11:39:54.523Z,2.15
2022-08-03T11:42:24.475Z,1.85
2022-08-03T11:45:00.238Z,1.73
2022-08-03T11:47:29.716Z,3.25
2022-08-03T11:50:02.270Z,2.15
2022-08-03T11:52:37.013Z,2.17
2022-08-03T11:55:10.955Z,3.25
2022-08-03T11:59:17.904Z,2.70
2022-08-03T12:00:28.338Z,2.58
2022-08-03T12:03:12.270Z,3.08
2022-08-03T12:05:51.503Z,2.22
2022-08-03T12:08:28.411Z,1.92
2022-08-03T12:11:00.138Z,1.85
2022-08-03T12:14:32.970Z,1.42
2022-08-03T12:16:28.783Z,1.33
2022-08-03T12:19:02.520Z,2.92
2022-08-03T12:21:30.471Z,1.85
2022-08-03T12:24:05.463Z,1.15
2022-08-03T12:26:58.975Z,1.63
2022-08-03T12:29:27.139Z,2.38
2022-08-03T12:31:55.981Z,1.90
2022-08-03T12:34:23.342Z,1.83
2022-08-03T12:36:56.796Z,1.48
2022-08-03T12:39:26.395Z,2.90
2022-08-03T12:41:55.719Z,1.67
2022-08-03T12:44:34.649Z,1.88
2022-08-03T12:47:04.087Z,1.90
2022-08-03T12:49:50.262Z,2.15
2022-08-03T12:52:22.972Z,1.92
2022-08-03T12:54:58.168Z,2.72
2022-08-03T12:57:25.443Z,1.42
2022-08-03T12:59:55.963Z,1.60
2022-08-03T13:02:26.658Z,2.28
2022-08-03T13:04:54.989Z,2.38
2022-08-03T13:07:23.264Z,1.58
2022-08-03T13:09:53.939Z,1.40
2022-08-03T13:12:22.990Z,2.00
2022-08-03T13:14:55.328Z,1.38
2022-08-03T13:17:22.997Z,1.77
2022-08-03T13:19:51.394Z,1.38
2022-08-03T13:22:29.079Z,1.85
2022-08-03T13:24:57.609Z,1.38
2022-08-03T13:28:03.721Z,1.25
2022-08-03T13:30:13.179Z,1.13
2022-08-03T13:32:41.060Z,1.92
2022-08-03T13:35:09.787Z,1.05
2022-08-03T13:37:37.628Z,0.70
2022-08-03T13:40:08.236Z,0.77
2022-08-03T13:42:39.090Z,1.52
2022-08-03T13:45:06.712Z,1.40
2022-08-03T13:47:33.739Z,0.88
2022-08-03T13:50:02.893Z,0.95
2022-08-03T13:52:36.240Z,0.80
2022-08-03T13:55:05.815Z,1.10
2022-08-03T13:58:04.320Z,1.35
2022-08-03T14:00:27.725Z,1.00
2022-08-03T14:03:03.967Z,1.58
2022-08-03T14:05:35.727Z,1.15
2022-08-03T14:08:04.760Z,1.17
2022-08-03T14:10:35.206Z,0.85
2022-08-03T14:13:02.600Z,1.13
2022-08-03T14:15:29.622Z,1.13
2022-08-03T14:17:58.415Z,0.80
2022-08-03T14:20:36.654Z,1.00
2022-08-03T14:23:04.639Z,0.90
2022-08-03T14:25:43.187Z,1.40
2022-08-03T14:28:17.812Z,0.80
2022-08-03T14:30:44.819Z,0.70
2022-08-03T14:33:11.912Z,1.15
2022-08-03T14:35:38.879Z,0.70
2022-08-03T14:38:06.014Z,0.63
2022-08-03T14:40:33.048Z,1.20
2022-08-03T14:43:00.075Z,0.77
2022-08-03T14:45:27.013Z,0.93
2022-08-03T14:50:29.596Z,1.33
2022-08-03T14:50:44.239Z,0.90
2022-08-03T14:53:14.020Z,0.93
2022-08-03T14:55:50.930Z,0.95
2022-08-03T14:58:21.551Z,0.95
2022-08-03T15:00:50.677Z,1.33
2022-08-03T15:03:25.566Z,1.00
2022-08-03T15:05:54.767Z,0.75
2022-08-03T15:08:23.945Z,0.90
2022-08-03T15:10:51.389Z,0.90
2022-08-03T15:13:19.780Z,0.85
2022-08-03T15:15:47.910Z,0.90
2022-08-03T15:18:15.066Z,0.95
2022-08-03T15:20:46.656Z,1.17
2022-08-03T15:23:15.626Z,1.38
2022-08-03T15:26:28.246Z,1.00
2022-08-03T15:28:32.056Z,0.98
2022-08-03T15:30:59.224Z,1.52
2022-08-03T15:33:26.288Z,1.02
2022-08-03T15:35:53.464Z,1.30
2022-08-03T15:38:25.948Z,1.02
2022-08-03T15:40:55.147Z,0.90
2022-08-03T15:43:23.350Z,1.00
2022-08-03T15:46:12.822Z,0.80
2022-08-03T15:48:37.727Z,1.05
2022-08-03T15:51:05.958Z,1.30
2022-08-03T15:53:33.699Z,0.90
2022-08-03T15:56:04.237Z,0.82
2022-08-03T15:59:09.293Z,1.13
2022-08-03T16:01:21.894Z,0.80
2022-08-03T16:03:48.849Z,0.95
2022-08-03T16:06:15.926Z,0.90
2022-08-03T16:08:43.381Z,0.73
2022-08-03T16:11:11.086Z,0.68
2022-08-03T16:14:12.339Z,1.08
2022-08-03T16:16:24.899Z,1.08
2022-08-03T16:18:52.000Z,1.27
2022-08-03T16:21:20.066Z,0.70
2022-08-03T16:23:48.990Z,0.60
2022-08-03T16:26:15.885Z,0.80
2022-08-03T16:28:42.774Z,1.10
2022-08-03T16:31:09.773Z,0.90
2022-08-03T16:33:36.672Z,1.05
2022-08-03T16:36:04.023Z,1.92
2022-08-03T16:38:33.732Z,1.15
2022-08-03T16:41:00.643Z,0.80
2022-08-03T16:43:28.298Z,0.57
2022-08-03T16:45:55.228Z,0.95
2022-08-03T16:48:22.227Z,1.20
2022-08-03T16:50:49.416Z,1.30
2022-08-03T16:53:17.612Z,0.57
2022-08-03T16:56:00.437Z,0.63
2022-08-03T16:58:41.601Z,1.20
2022-08-03T17:01:22.193Z,0.80
2022-08-03T17:04:03.276Z,0.88
2022-08-03T17:06:38.566Z,0.80
2022-08-03T17:09:19.047Z,0.90
2022-08-03T17:11:50.159Z,1.27
2022-08-03T17:14:22.940Z,0.85
2022-08-03T17:17:01.553Z,0.90
2022-08-03T17:19:35.839Z,1.20
2022-08-03T17:22:12.602Z,1.30
2022-08-03T17:24:50.369Z,0.80
2022-08-03T17:28:50.494Z,0.77
2022-08-03T17:30:13.308Z,1.25
2022-08-03T17:32:56.610Z,1.02
2022-08-03T17:35:34.592Z,0.80
2022-08-03T17:38:06.704Z,1.15
2022-08-03T17:40:34.937Z,1.40
2022-08-03T17:44:13.420Z,1.25
2022-08-03T17:48:41.397Z,0.90
2022-08-03T17:51:21.450Z,0.85
2022-08-03T17:54:05.960Z,1.00
2022-08-03T18:00:32.463Z,0.80
2022-08-03T18:03:58.041Z,1.15
2022-08-03T18:06:29.887Z,0.90
2022-08-03T18:09:04.778Z,1.50
2022-08-03T18:11:37.127Z,0.85
2022-08-03T18:14:29.542Z,1.02
2022-08-03T18:17:04.180Z,1.38
2022-08-03T18:20:02.156Z,1.25
2022-08-03T18:22:27.088Z,1.25
2022-08-03T18:24:55.875Z,1.15
2022-08-03T18:27:24.319Z,1.00
2022-08-03T18:30:12.514Z,0.80
2022-08-03T18:32:40.238Z,0.90
2022-08-03T18:35:13.666Z,1.85
2022-08-03T18:37:51.946Z,1.27
2022-08-03T18:40:20.896Z,6.25
2022-08-03T18:42:52.729Z,3.10
2022-08-03T18:45:57.691Z,0.93
2022-08-03T18:48:28.733Z,0.73
2022-08-03T18:51:07.610Z,1.58
2022-08-03T18:54:03.149Z,1.65
2022-08-03T18:56:48.322Z,1.33
2022-08-03T18:59:30.194Z,1.63
2022-08-03T19:02:06.847Z,1.17
2022-08-03T19:04:46.827Z,1.48
2022-08-03T19:07:27.163Z,1.42
2022-08-03T19:10:08.661Z,1.83
2022-08-03T19:12:44.470Z,1.20
2022-08-03T19:15:15.734Z,1.30
2022-08-03T19:17:52.881Z,1.33
2022-08-03T19:20:35.454Z,1.27
2022-08-03T19:23:02.466Z,1.10
2022-08-03T19:25:40.576Z,1.58
2022-08-03T19:28:09.231Z,1.05
2022-08-03T19:30:46.186Z,0.90
2022-08-03T19:33:16.559Z,1.00
2022-08-03T19:35:54.969Z,1.42
2022-08-03T19:38:28.546Z,1.35
2022-08-03T19:41:03.860Z,12.38
2022-08-03T19:43:52.627Z,6.35
2022-08-03T19:46:30.560Z,1.45
2022-08-03T19:49:16.038Z,2.47
2022-08-03T19:52:00.534Z,2.45
2022-08-03T19:55:05.277Z,1.85
2022-08-03T19:57:34.047Z,1.08
2022-08-03T20:00:03.579Z,1.20
2022-08-03T20:02:33.015Z,1.20
2022-08-03T20:05:01.377Z,1.45
2022-08-03T20:07:32.898Z,1.35
2022-08-03T20:10:04.774Z,1.98
2022-08-03T20:12:39.072Z,1.77
2022-08-03T20:15:07.511Z,1.50
2022-08-03T20:17:55.343Z,1.60
2022-08-03T20:20:39.558Z,1.13
2022-08-03T20:23:11.948Z,1.67
2022-08-03T20:25:48.796Z,1.80
2022-08-03T20:28:32.165Z,1.98
2022-08-03T20:30:59.948Z,1.70
2022-08-03T20:33:48.377Z,1.48
2022-08-03T20:36:17.912Z,1.20
2022-08-03T20:38:47.843Z,1.58
2022-08-03T20:41:17.171Z,1.73
2022-08-03T20:43:45.319Z,1.77
2022-08-03T20:46:31.946Z,2.30
2022-08-03T20:49:04.388Z,1.48
2022-08-03T20:51:49.039Z,1.65
2022-08-03T20:54:31.077Z,1.80
2022-08-03T20:57:04.446Z,2.38
2022-08-03T20:59:47.652Z,1.65
2022-08-03T21:02:30.096Z,1.55
2022-08-03T21:05:03.453Z,1.60
2022-08-03T21:08:06.411Z,1.67
2022-08-03T21:10:39.825Z,1.67
2022-08-03T21:13:04.040Z,0.98
2022-08-03T21:13:04.955Z,1.10
2022-08-03T21:13:39.795Z,2.03
2022-08-03T21:16:13.973Z,1.70
2022-08-03T21:18:49.839Z,2.00
2022-08-03T21:21:22.180Z,2.00
2022-08-03T21:23:52.897Z,1.50
2022-08-03T21:26:23.548Z,2.15
2022-08-03T21:28:54.994Z,1.60
2022-08-03T21:31:25.530Z,1.67
2022-08-03T21:34:05.030Z,1.70
2022-08-03T21:36:37.522Z,1.55
2022-08-03T21:39:08.545Z,1.63
2022-08-03T21:41:38.005Z,1.55
2022-08-03T21:44:06.424Z,1.75
2022-08-03T21:46:39.985Z,1.83
2022-08-03T21:50:04.479Z,1.60
2022-08-03T21:51:59.620Z,1.60
2022-08-03T21:54:38.293Z,1.77
2022-08-03T21:57:16.627Z,1.98
2022-08-03T21:59:53.032Z,1.73
2022-08-03T22:02:24.214Z,2.08
2022-08-03T22:04:56.970Z,1.63
2022-08-03T22:07:29.029Z,1.70
2022-08-03T22:09:57.954Z,1.90
2022-08-03T22:12:27.900Z,2.00
2022-08-03T22:15:01.193Z,1.98
2022-08-03T22:17:55.517Z,1.65
2022-08-03T22:20:21.756Z,1.58
2022-08-03T22:22:56.628Z,1.88
2022-08-03T22:25:36.585Z,1.60
2022-08-03T22:28:09.903Z,1.70
2022-08-03T22:30:38.302Z,1.65
2022-08-03T22:33:11.594Z,1.83
2022-08-03T22:35:50.698Z,1.80
2022-08-03T22:38:18.776Z,2.08
2022-08-03T22:40:49.853Z,1.60
2022-08-03T22:43:17.599Z,2.17
2022-08-03T22:46:09.715Z,1.73
2022-08-03T22:48:35.504Z,2.47
2022-08-03T22:51:07.707Z,2.38
2022-08-03T22:53:36.035Z,1.95
2022-08-03T22:56:04.155Z,2.22
2022-08-03T22:58:31.203Z,1.70
2022-08-03T23:01:04.550Z,1.25
2022-08-03T23:04:00.150Z,1.80
2022-08-03T23:06:24.086Z,2.55
2022-08-03T23:08:51.102Z,1.60
2022-08-03T23:11:19.329Z,2.00
2022-08-03T23:13:53.615Z,2.13
2022-08-03T23:16:28.944Z,2.20
2022-08-03T23:18:59.577Z,2.08
2022-08-03T23:22:00.672Z,2.10
2022-08-03T23:24:26.022Z,2.10
2022-08-03T23:26:58.409Z,1.77
2022-08-03T23:29:29.341Z,1.67
2022-08-03T23:31:57.638Z,2.47
2022-08-03T23:34:44.666Z,1.77
2022-08-03T23:37:15.302Z,1.95
2022-08-03T23:39:47.139Z,1.85
2022-08-03T23:42:21.716Z,1.52
2022-08-03T23:44:54.609Z,2.00
2022-08-03T23:47:21.883Z,1.80
2022-08-03T23:49:49.987Z,2.30
2022-08-03T23:52:34.352Z,2.20
2022-08-03T23:55:36.526Z,2.03
2022-08-03T23:58:30.685Z,1.88
